Time;durP1;ratioP1;P1;durP2;ratioP2;P2;SDS_P1;SDS_P2;PMS_P1;PMS_P2;Temp;Humidity;BMP_temperature;BMP_pressure;BME280_temperature;BME280_humidity;BME280_pressure;Samples;Min_cycle;Max_cycle;Signal;HPM_P1;HPM_P2
2023/12/04 00:01:18;;;;;;;6.53;3.30;;;;;;;6.47;86.20;97346.28;4913072;29;20291;-70
2023/12/04 00:03:45;;;;;;;6.63;3.10;;;;;;;6.47;86.20;97354.81;4912682;29;20198;-70
2023/12/04 00:06:13;;;;;;;7.33;3.00;;;;;;;6.40;85.17;97353.28;4913365;29;20237;-70
2023/12/04 00:08:40;;;;;;;4.77;2.20;;;;;;;6.22;84.81;97347.75;4912528;29;20208;-70
2023/12/04 00:11:07;;;;;;;6.30;2.87;;;;;;;6.08;85.03;97319.78;4912643;29;21337;-70
2023/12/04 00:13:35;;;;;;;9.27;4.30;;;;;;;6.32;86.17;97368.06;4911465;29;20632;-70
2023/12/04 00:16:02;;;;;;;9.07;4.47;;;;;;;6.31;85.73;97365.50;4912172;29;20287;-70
2023/12/04 00:18:30;;;;;;;9.50;4.40;;;;;;;6.28;86.31;97373.31;4912945;29;20596;-70
2023/12/04 00:20:57;;;;;;;7.17;3.27;;;;;;;6.25;86.41;97375.94;4912423;29;20268;-71
2023/12/04 00:23:24;;;;;;;8.57;3.83;;;;;;;6.08;86.11;97368.63;4912748;29;20231;-72
2023/12/04 00:25:51;;;;;;;6.70;3.60;;;;;;;5.97;87.23;97367.19;4912444;29;20260;-71
2023/12/04 00:28:18;;;;;;;8.60;3.67;;;;;;;5.50;87.10;97321.97;4912193;29;20208;-70
2023/12/04 00:30:46;;;;;;;7.60;3.70;;;;;;;6.08;86.72;97376.34;4912211;29;20245;-70
2023/12/04 00:33:14;;;;;;;7.67;3.60;;;;;;;5.93;86.35;97380.97;4912098;29;20224;-70
2023/12/04 00:35:41;;;;;;;6.40;2.60;;;;;;;5.92;87.28;97379.28;4912479;29;20228;-74
2023/12/04 00:38:08;;;;;;;6.97;3.73;;;;;;;5.87;86.63;97378.56;4912040;29;20227;-71
2023/12/04 00:40:35;;;;;;;5.03;2.63;;;;;;;5.62;86.72;97383.34;4912324;29;20247;-70
2023/12/04 00:43:02;;;;;;;6.60;3.30;;;;;;;5.66;86.65;97359.28;4911953;29;20260;-70
2023/12/04 00:45:29;;;;;;;7.63;3.47;;;;;;;5.83;84.81;97403.44;4911959;29;20835;-72
2023/12/04 00:47:57;;;;;;;8.50;3.73;;;;;;;5.71;84.86;97395.97;4912341;29;20216;-70
2023/12/04 00:50:24;;;;;;;8.33;3.40;;;;;;;5.28;85.80;97336.94;4912280;29;20263;-70
2023/12/04 00:52:51;;;;;;;7.07;3.20;;;;;;;5.63;85.74;97397.84;4912139;29;20259;-71
2023/12/04 00:55:19;;;;;;;8.10;3.63;;;;;;;5.76;84.30;97404.44;4911650;29;20196;-70
2023/12/04 00:57:46;;;;;;;9.37;3.53;;;;;;;5.75;85.81;97402.72;4912231;29;20239;-69
2023/12/04 01:00:14;;;;;;;8.00;3.47;;;;;;;5.57;84.88;97383.44;4911442;29;20201;-69
2023/12/04 01:02:41;;;;;;;9.47;4.10;;;;;;;5.32;85.99;97378.81;4911645;29;20244;-70
2023/12/04 01:05:08;;;;;;;8.27;3.80;;;;;;;5.51;85.61;97409.25;4910361;29;20674;-70
2023/12/04 01:07:36;;;;;;;9.13;3.83;;;;;;;5.53;84.40;97422.03;4911804;29;20221;-75
2023/12/04 01:10:04;;;;;;;7.83;3.60;;;;;;;5.36;85.06;97408.69;4912033;29;20279;-72
2023/12/04 01:12:32;;;;;;;7.43;3.60;;;;;;;5.37;84.91;97428.34;4911719;29;20278;-74
2023/12/04 01:14:59;;;;;;;6.73;3.07;;;;;;;5.35;84.00;97448.94;4911535;29;20734;-72
2023/12/04 01:17:26;;;;;;;7.50;3.33;;;;;;;5.02;86.16;97425.59;4911474;29;20323;-71
2023/12/04 01:19:53;;;;;;;9.03;3.77;;;;;;;4.91;87.31;97428.34;4911891;29;20199;-74
2023/12/04 01:22:20;;;;;;;8.03;3.50;;;;;;;5.44;86.31;97455.63;4911852;29;20311;-74
2023/12/04 01:24:47;;;;;;;11.33;4.67;;;;;;;5.34;85.27;97454.06;4911749;29;20209;-73
2023/12/04 01:27:15;;;;;;;7.80;3.53;;;;;;;5.56;84.98;97455.38;4912370;29;20201;-76
2023/12/04 01:29:42;;;;;;;11.43;4.70;;;;;;;5.53;85.68;97456.28;4911714;29;20210;-74
2023/12/04 01:32:09;;;;;;;7.37;3.50;;;;;;;5.47;84.80;97458.97;4912229;29;20231;-73
2023/12/04 01:34:36;;;;;;;8.20;3.60;;;;;;;5.21;85.04;97458.63;4911265;29;20248;-74
2023/12/04 01:37:03;;;;;;;7.33;3.50;;;;;;;4.77;86.67;97471.34;4911286;29;20245;-74
2023/12/04 01:39:30;;;;;;;8.30;3.63;;;;;;;4.97;85.64;97447.06;4905182;29;20204;-73
2023/12/04 01:41:58;;;;;;;9.80;4.50;;;;;;;4.87;86.46;97445.53;4892182;29;20251;-72
2023/12/04 01:44:25;;;;;;;8.30;3.90;;;;;;;4.76;86.67;97444.84;4892197;29;20657;-74
2023/12/04 01:46:52;;;;;;;10.37;4.77;;;;;;;4.71;86.80;97449.22;4892428;29;20211;-74
2023/12/04 01:49:19;;;;;;;8.40;3.93;;;;;;;4.74;85.55;97459.41;4892252;29;20220;-74
2023/12/04 01:51:47;;;;;;;7.03;3.60;;;;;;;4.70;86.19;97439.81;4892095;29;20203;-74
2023/12/04 01:54:15;;;;;;;8.47;3.47;;;;;;;4.72;86.72;97458.59;4892459;29;20207;-74
2023/12/04 01:56:43;;;;;;;7.00;3.37;;;;;;;4.74;87.22;97456.03;4891942;29;20243;-75
2023/12/04 01:59:10;;;;;;;10.33;4.60;;;;;;;4.97;86.08;97447.94;4891962;29;20285;-72
2023/12/04 02:01:38;;;;;;;12.70;5.50;;;;;;;5.28;84.83;97475.59;4891891;29;20675;-73
2023/12/04 02:04:06;;;;;;;12.17;4.70;;;;;;;5.21;84.24;97473.16;4891795;29;20210;-74
2023/12/04 02:06:33;;;;;;;9.17;3.97;;;;;;;5.38;83.77;97468.59;4892261;29;20256;-74
2023/12/04 02:09:01;;;;;;;10.50;4.47;;;;;;;5.11;84.70;97474.22;4891823;29;20237;-71
2023/12/04 02:11:28;;;;;;;8.60;4.17;;;;;;;5.04;84.18;97478.59;4892058;29;20293;-71
2023/12/04 02:13:55;;;;;;;9.90;4.20;;;;;;;5.21;83.50;97491.13;4892047;29;20216;-70
2023/12/04 02:16:26;;;;;;;11.60;4.67;;;;;;;4.97;83.59;97484.69;4892031;29;20235;-72
2023/12/04 02:18:53;;;;;;;11.73;4.90;;;;;;;5.06;82.51;97481.97;4891786;29;20212;-71
2023/12/04 02:21:20;;;;;;;11.23;4.67;;;;;;;5.17;83.71;97481.81;4906246;29;20203;-74
2023/12/04 02:23:50;;;;;;;10.43;4.60;;;;;;;5.08;82.38;97457.13;4892273;29;20227;-73
2023/12/04 02:26:23;;;;;;;9.93;4.27;;;;;;;5.18;82.68;97488.59;4891421;29;20208;-74
2023/12/04 02:28:58;;;;;;;12.03;5.33;;;;;;;5.13;81.81;97475.03;4906192;29;20584;-70
2023/12/04 02:31:28;;;;;;;14.03;5.33;;;;;;;5.18;82.67;97486.03;4906307;29;20196;-74
2023/12/04 02:33:57;;;;;;;15.23;5.97;;;;;;;5.16;82.95;97487.78;4891896;29;20742;-73
2023/12/04 02:36:25;;;;;;;10.17;4.80;;;;;;;5.41;82.34;97489.06;4891915;29;20742;-73
2023/12/04 02:38:54;;;;;;;15.40;5.53;;;;;;;5.16;82.16;97495.50;4895221;29;20261;-72
2023/12/04 02:41:21;;;;;;;9.80;4.30;;;;;;;5.15;83.44;97498.94;4895775;29;20220;-73
2023/12/04 02:43:48;;;;;;;10.37;4.57;;;;;;;5.27;82.03;97502.16;4895319;29;20854;-74
2023/12/04 02:46:15;;;;;;;10.80;4.67;;;;;;;5.07;83.14;97457.16;4895606;29;20200;-72
2023/12/04 02:48:43;;;;;;;10.90;4.80;;;;;;;4.95;84.20;97504.41;4895711;29;20224;-73
2023/12/04 02:51:11;;;;;;;12.47;5.60;;;;;;;5.11;84.03;97510.16;4895222;29;20211;-74
2023/12/04 02:53:38;;;;;;;16.40;6.40;;;;;;;5.04;84.19;97501.69;4894965;29;20215;-70
2023/12/04 02:56:05;;;;;;;12.13;5.63;;;;;;;5.09;84.30;97519.59;4895123;29;20654;-73
2023/12/04 02:58:34;;;;;;;11.93;5.37;;;;;;;4.99;83.68;97515.47;4895515;29;20198;-73
2023/12/04 03:01:01;;;;;;;12.53;5.37;;;;;;;4.77;84.84;97500.44;4894654;29;20250;-73
2023/12/04 03:03:28;;;;;;;16.17;5.63;;;;;;;4.71;83.87;97510.78;4895230;29;20212;-71
2023/12/04 03:05:55;;;;;;;13.37;5.50;;;;;;;4.80;85.13;97508.06;4894774;29;20636;-73
2023/12/04 03:08:23;;;;;;;17.43;7.10;;;;;;;4.62;85.95;97490.38;4894775;29;20203;-72
2023/12/04 03:10:50;;;;;;;16.97;5.90;;;;;;;4.51;86.34;97501.69;4894763;29;20645;-73
2023/12/04 03:13:17;;;;;;;13.03;5.63;;;;;;;4.59;86.46;97520.38;4909096;29;20216;-72
2023/12/04 03:15:44;;;;;;;14.73;5.73;;;;;;;4.50;86.51;97531.59;4894962;29;20636;-70
2023/12/04 03:18:11;;;;;;;15.87;5.90;;;;;;;4.47;86.01;97523.94;4894506;29;20620;-71
2023/12/04 03:20:39;;;;;;;11.83;4.70;;;;;;;4.13;86.14;97536.38;4895125;29;20674;-72
2023/12/04 03:23:06;;;;;;;11.50;5.10;;;;;;;4.18;86.79;97517.53;4894545;29;20192;-72
2023/12/04 03:25:33;;;;;;;16.20;6.43;;;;;;;4.29;87.02;97541.28;4895055;29;20298;-73
2023/12/04 03:28:01;;;;;;;16.17;6.10;;;;;;;4.18;86.18;97527.78;4894522;29;20207;-72
2023/12/04 03:30:28;;;;;;;13.13;6.17;;;;;;;4.53;85.85;97539.28;4895011;29;20199;-71
2023/12/04 03:32:55;;;;;;;17.03;6.33;;;;;;;4.63;84.84;97543.41;4894603;29;20199;-70
2023/12/04 03:35:22;;;;;;;17.73;7.50;;;;;;;4.67;85.05;97545.03;4894306;29;20722;-71
2023/12/04 03:37:52;;;;;;;13.80;6.20;;;;;;;4.49;85.56;97529.06;4894708;29;20791;-70
2023/12/04 03:40:19;;;;;;;12.17;5.47;;;;;;;4.56;86.04;97541.78;4894328;29;20199;-72
2023/12/04 03:42:46;;;;;;;15.20;6.17;;;;;;;4.47;85.92;97533.38;4894563;29;20196;-73
2023/12/04 03:45:13;;;;;;;13.80;6.17;;;;;;;4.61;84.91;97539.16;4894590;29;20211;-70
2023/12/04 03:47:40;;;;;;;18.70;7.63;;;;;;;4.76;84.25;97537.19;4894032;29;20217;-72
2023/12/04 03:50:08;;;;;;;21.23;7.93;;;;;;;4.77;83.39;97533.78;4894016;29;20234;-71
2023/12/04 03:52:35;;;;;;;16.70;7.50;;;;;;;4.65;83.75;97525.41;4893955;29;20200;-71
2023/12/04 03:55:03;;;;;;;15.93;7.30;;;;;;;4.60;84.69;97528.03;4894521;29;20288;-71
2023/12/04 03:57:30;;;;;;;14.70;7.43;;;;;;;4.71;83.63;97536.44;4893824;29;20232;-71
2023/12/04 03:59:57;;;;;;;17.50;7.63;;;;;;;4.74;82.56;97544.06;4894410;29;20225;-70
2023/12/04 04:02:24;;;;;;;15.40;7.43;;;;;;;4.65;84.31;97539.09;4893772;29;20341;-73
2023/12/04 04:04:51;;;;;;;14.67;7.43;;;;;;;4.69;82.50;97527.91;4894066;29;20231;-71
2023/12/04 04:07:19;;;;;;;15.23;6.53;;;;;;;4.91;81.84;97530.97;4893988;29;20252;-70
2023/12/04 04:09:46;;;;;;;15.00;6.77;;;;;;;4.82;80.78;97552.50;4893917;29;20212;-74
2023/12/04 04:12:14;;;;;;;13.07;6.17;;;;;;;4.73;80.38;97538.97;4894216;29;20568;-71
2023/12/04 04:14:41;;;;;;;12.83;6.27;;;;;;;4.72;80.29;97561.19;4893663;29;20227;-75
2023/12/04 04:17:08;;;;;;;12.77;5.90;;;;;;;4.59;81.06;97553.72;4894250;29;20233;-74
2023/12/04 04:19:35;;;;;;;13.37;5.90;;;;;;;4.62;81.79;97562.19;4893467;29;20212;-72
2023/12/04 04:22:03;;;;;;;15.47;6.83;;;;;;;4.69;81.28;97568.94;4894150;29;20590;-74
2023/12/04 04:24:30;;;;;;;13.37;6.60;;;;;;;4.75;80.87;97552.63;4893984;29;20207;-69
2023/12/04 04:26:57;;;;;;;12.57;6.40;;;;;;;4.99;80.88;97582.22;4893977;29;20195;-72
2023/12/04 04:29:24;;;;;;;15.07;6.97;;;;;;;4.97;80.64;97570.22;4893527;29;20275;-74
2023/12/04 04:31:51;;;;;;;16.70;7.30;;;;;;;4.94;80.30;97575.44;4893525;29;20210;-76
2023/12/04 04:34:20;;;;;;;16.90;8.00;;;;;;;4.65;80.62;97551.91;4911738;29;20290;-75
2023/12/04 04:36:47;;;;;;;17.17;6.63;;;;;;;4.51;79.56;97569.22;4909669;29;20594;-73
2023/12/04 04:39:14;;;;;;;13.97;6.07;;;;;;;4.26;79.75;97537.06;4901009;29;20207;-71
2023/12/04 04:41:41;;;;;;;12.57;6.20;;;;;;;4.33;80.67;97577.13;4893596;29;20298;-74
2023/12/04 04:44:08;;;;;;;15.00;6.77;;;;;;;4.64;80.87;97588.69;4911350;29;20218;-74
2023/12/04 04:46:37;;;;;;;16.83;7.00;;;;;;;4.63;80.67;97592.13;4911888;29;20204;-75
2023/12/04 04:49:08;;;;;;;22.03;7.43;;;;;;;4.20;81.45;97552.53;4908293;29;20199;-74
2023/12/04 04:51:36;;;;;;;11.33;5.90;;;;;;;4.52;79.68;97591.41;4911333;29;20612;-73
2023/12/04 04:54:04;;;;;;;15.80;6.90;;;;;;;4.68;79.98;97576.66;4894501;29;20290;-74
2023/12/04 04:56:32;;;;;;;12.17;6.43;;;;;;;4.54;79.01;97586.25;4911568;29;20200;-70
2023/12/04 04:58:59;;;;;;;12.93;6.20;;;;;;;4.31;79.66;97535.28;4911030;29;20292;-73
2023/12/04 05:01:26;;;;;;;19.97;9.23;;;;;;;4.54;79.25;97571.72;4910930;29;20233;-73
2023/12/04 05:03:53;;;;;;;16.57;7.83;;;;;;;4.78;78.76;97589.31;4892740;29;20210;-74
2023/12/04 05:06:22;;;;;;;23.97;10.03;;;;;;;4.46;79.59;97570.97;4892957;29;20664;-74
2023/12/04 05:08:52;;;;;;;18.90;8.40;;;;;;;4.38;79.66;97559.13;4892963;29;20209;-74
2023/12/04 05:11:20;;;;;;;16.60;7.77;;;;;;;4.24;80.82;97582.38;4892545;29;20225;-74
2023/12/04 05:13:47;;;;;;;16.70;7.97;;;;;;;4.34;80.61;97578.84;4892853;29;20276;-71
2023/12/04 05:16:14;;;;;;;18.87;8.17;;;;;;;4.24;81.17;97572.13;4892374;29;20211;-72
2023/12/04 05:18:42;;;;;;;18.57;7.77;;;;;;;4.39;79.37;97586.47;4899504;29;20223;-73
2023/12/04 05:21:11;;;;;;;19.97;8.33;;;;;;;4.53;78.60;97577.75;4912247;29;20298;-74
2023/12/04 05:23:42;;;;;;;17.90;7.60;;;;;;;4.59;79.76;97598.16;4880238;29;20193;-75
2023/12/04 05:26:10;;;;;;;13.37;6.27;;;;;;;4.61;77.90;97593.88;4911510;29;20191;-74
2023/12/04 05:28:37;;;;;;;16.83;6.57;;;;;;;4.69;77.57;97599.72;4894392;29;20662;-70
2023/12/04 05:31:05;;;;;;;16.50;6.87;;;;;;;4.57;79.29;97605.03;4911388;29;20716;-73
2023/12/04 05:33:32;;;;;;;18.37;6.73;;;;;;;4.54;78.85;97609.34;4910994;29;20223;-75
2023/12/04 05:36:00;;;;;;;17.23;7.60;;;;;;;4.75;78.30;97607.34;4911135;29;20212;-74
2023/12/04 05:38:27;;;;;;;24.17;8.57;;;;;;;4.63;79.53;97604.09;4893792;29;20243;-72
2023/12/04 05:40:54;;;;;;;20.23;7.83;;;;;;;4.69;79.12;97609.13;4910971;29;20187;-69
2023/12/04 05:43:21;;;;;;;19.30;8.27;;;;;;;4.54;77.70;97594.81;4910876;29;20233;-73
2023/12/04 05:45:48;;;;;;;16.70;6.80;;;;;;;4.35;76.73;97588.22;4910287;29;20200;-71
2023/12/04 05:48:18;;;;;;;18.27;7.37;;;;;;;4.60;77.76;97610.09;4910973;29;20631;-72
2023/12/04 05:50:46;;;;;;;14.87;6.03;;;;;;;4.47;76.59;97623.94;4910213;29;20288;-74
2023/12/04 05:53:13;;;;;;;22.30;8.00;;;;;;;4.20;75.76;97613.19;4910419;29;20199;-70
2023/12/04 05:55:40;;;;;;;22.63;7.70;;;;;;;4.30;76.80;97617.34;4909916;29;20196;-70
2023/12/04 05:58:07;;;;;;;18.43;7.23;;;;;;;4.34;77.19;97621.56;4909908;29;20229;-68
2023/12/04 06:00:34;;;;;;;26.00;9.80;;;;;;;4.23;77.22;97623.41;4909936;29;20214;-70
2023/12/04 06:03:01;;;;;;;20.40;7.83;;;;;;;4.29;76.32;97621.59;4909628;29;20235;-70
2023/12/04 06:05:29;;;;;;;16.90;7.00;;;;;;;4.31;76.74;97617.31;4910774;29;20258;-74
2023/12/04 06:07:57;;;;;;;16.93;6.47;;;;;;;4.57;76.61;97635.81;4893420;29;20581;-74
2023/12/04 06:10:25;;;;;;;22.57;8.13;;;;;;;4.48;76.40;97640.19;4910806;29;20697;-74
2023/12/04 06:12:53;;;;;;;19.70;7.30;;;;;;;4.40;76.76;97621.47;4909402;29;20229;-74
2023/12/04 06:15:20;;;;;;;20.57;7.97;;;;;;;4.69;76.39;97639.91;4910233;29;20189;-73
2023/12/04 06:17:47;;;;;;;19.73;8.10;;;;;;;4.33;76.02;97584.81;4910796;29;20258;-73
2023/12/04 06:20:14;;;;;;;23.23;8.37;;;;;;;4.53;76.57;97641.84;4910492;29;20575;-74
2023/12/04 06:22:41;;;;;;;18.67;7.57;;;;;;;4.62;76.07;97654.53;4909366;29;20210;-72
2023/12/04 06:25:09;;;;;;;17.10;7.00;;;;;;;4.66;76.54;97656.19;4910283;29;20194;-74
2023/12/04 06:27:38;;;;;;;23.77;8.60;;;;;;;4.91;75.14;97657.56;4910784;29;20294;-73
2023/12/04 06:30:06;;;;;;;22.47;8.07;;;;;;;5.01;75.40;97667.72;4910121;29;20764;-75
2023/12/04 06:32:34;;;;;;;22.40;8.87;;;;;;;4.93;74.81;97671.22;4910163;29;20298;-72
2023/12/04 06:35:03;;;;;;;24.07;10.47;;;;;;;5.09;74.84;97674.41;4910108;29;20682;-73
2023/12/04 06:37:31;;;;;;;20.07;8.63;;;;;;;5.16;74.49;97676.03;4909798;29;20239;-74
2023/12/04 06:40:02;;;;;;;19.83;7.40;;;;;;;4.98;73.89;97681.44;4910023;29;20203;-74
2023/12/04 06:42:30;;;;;;;18.30;7.83;;;;;;;5.15;73.47;97679.50;4909665;29;20577;-74
2023/12/04 06:44:57;;;;;;;19.63;8.23;;;;;;;4.97;73.91;97680.59;4910389;29;20212;-71
2023/12/04 06:47:25;;;;;;;19.70;7.83;;;;;;;4.84;74.21;97678.22;4909946;29;20199;-71
2023/12/04 06:49:52;;;;;;;23.83;8.70;;;;;;;4.63;75.13;97640.00;4909602;29;20218;-72
2023/12/04 06:52:19;;;;;;;26.53;9.53;;;;;;;4.83;73.97;97684.19;4909750;29;20201;-72
2023/12/04 06:54:46;;;;;;;20.07;7.80;;;;;;;4.95;74.13;97697.72;4909615;29;20659;-69
2023/12/04 06:57:14;;;;;;;20.93;8.37;;;;;;;4.38;74.39;97639.47;4909723;29;20689;-72
2023/12/04 06:59:42;;;;;;;17.10;7.27;;;;;;;4.79;72.84;97685.09;4892298;29;20206;-75
2023/12/04 07:02:10;;;;;;;22.90;9.17;;;;;;;4.64;73.16;97698.97;4909807;29;20240;-70
2023/12/04 07:04:37;;;;;;;30.07;11.67;;;;;;;4.36;75.11;97664.28;4907901;29;20303;-70
2023/12/04 07:07:07;;;;;;;26.13;11.17;;;;;;;4.62;75.26;97694.72;4908456;29;20290;-71
2023/12/04 07:09:34;;;;;;;20.53;8.80;;;;;;;4.60;74.06;97707.56;4909610;29;20218;-71
2023/12/04 07:12:02;;;;;;;22.70;9.80;;;;;;;4.47;72.91;97670.09;4909733;29;20274;-70
2023/12/04 07:14:30;;;;;;;21.40;9.30;;;;;;;4.68;73.70;97708.31;4909447;29;20585;-72
2023/12/04 07:16:57;;;;;;;19.40;9.50;;;;;;;4.52;74.83;97694.00;4909244;29;20278;-70
2023/12/04 07:19:24;;;;;;;19.43;8.83;;;;;;;4.67;72.87;97696.38;4909806;29;20214;-70
2023/12/04 07:21:51;;;;;;;20.07;8.00;;;;;;;4.71;73.83;97708.31;4909392;29;20272;-74
2023/12/04 07:24:18;;;;;;;18.03;7.00;;;;;;;4.38;73.87;97703.56;4912389;29;20279;-73
2023/12/04 07:26:45;;;;;;;15.90;6.50;;;;;;;4.61;73.07;97722.09;4912963;29;20274;-74
2023/12/04 07:29:13;;;;;;;22.30;8.73;;;;;;;4.71;73.00;97726.25;4912852;29;20293;-69
2023/12/04 07:31:41;;;;;;;21.20;8.17;;;;;;;4.46;72.95;97729.97;4912889;29;20235;-72
2023/12/04 07:34:09;;;;;;;19.27;7.87;;;;;;;4.58;72.92;97722.13;4912625;29;20699;-72
2023/12/04 07:36:37;;;;;;;17.30;7.27;;;;;;;4.17;72.74;97665.31;4913074;29;20202;-72
2023/12/04 07:39:06;;;;;;;16.33;6.67;;;;;;;4.65;72.62;97728.91;4895182;29;20230;-73
2023/12/04 07:41:34;;;;;;;16.50;6.93;;;;;;;4.72;72.60;97727.94;4913259;29;20190;-72
2023/12/04 07:44:02;;;;;;;14.30;5.87;;;;;;;4.55;72.26;97722.19;4895726;29;20215;-75
2023/12/04 07:46:29;;;;;;;18.13;6.77;;;;;;;4.79;72.26;97739.84;4913358;29;20317;-71
2023/12/04 07:48:56;;;;;;;16.50;6.43;;;;;;;4.58;70.17;97698.19;4913080;29;20771;-72
2023/12/04 07:51:24;;;;;;;17.93;6.63;;;;;;;4.81;70.58;97734.69;4912532;29;20317;-71
2023/12/04 07:53:51;;;;;;;19.33;7.43;;;;;;;4.72;71.57;97735.63;4912527;29;20199;-71
2023/12/04 07:56:18;;;;;;;18.07;6.97;;;;;;;4.66;71.75;97733.16;4912320;29;20199;-73
2023/12/04 07:58:45;;;;;;;18.50;7.30;;;;;;;4.74;70.73;97704.84;4912677;29;20227;-76
2023/12/04 08:01:12;;;;;;;19.67;8.40;;;;;;;5.00;71.14;97741.28;4895643;29;20239;-73
2023/12/04 08:03:39;;;;;;;17.97;7.33;;;;;;;4.81;69.84;97702.19;4912065;29;20200;-73
2023/12/04 08:06:07;;;;;;;27.03;11.37;;;;;;;4.98;69.73;97745.59;4912113;29;20201;-75
2023/12/04 08:08:34;;;;;;;26.47;11.80;;;;;;;4.88;70.96;97736.31;4912485;29;20206;-73
2023/12/04 08:11:01;;;;;;;18.73;8.13;;;;;;;4.72;70.36;97742.47;4880706;29;20287;-74
2023/12/04 08:13:28;;;;;;;22.40;8.03;;;;;;;4.92;69.48;97758.50;4894754;29;20295;-75
2023/12/04 08:15:55;;;;;;;15.43;7.20;;;;;;;4.77;71.36;97738.16;4926487;29;20268;-75
2023/12/04 08:18:22;;;;;;;26.90;8.27;;;;;;;4.97;71.63;97742.19;4910591;29;20327;-76
2023/12/04 08:20:49;;;;;;;25.07;9.97;;;;;;;4.94;71.16;97711.44;4912150;29;20196;-74
2023/12/04 08:23:17;;;;;;;18.97;8.10;;;;;;;5.17;71.21;97725.69;4911845;29;20275;-77
2023/12/04 08:25:45;;;;;;;21.60;8.70;;;;;;;5.13;71.02;97693.22;4912274;29;20624;-73
2023/12/04 08:28:14;;;;;;;20.50;7.80;;;;;;;5.54;69.85;97748.22;4927744;29;20218;-73
2023/12/04 08:30:41;;;;;;;22.50;8.80;;;;;;;5.38;70.06;97740.78;4911762;29;20227;-73
2023/12/04 08:33:08;;;;;;;25.67;9.63;;;;;;;5.30;69.90;97722.03;4926957;29;20255;-74
2023/12/04 08:35:36;;;;;;;25.97;8.37;;;;;;;5.57;69.80;97752.47;4893394;29;20212;-72
2023/12/04 08:38:03;;;;;;;20.63;8.07;;;;;;;5.35;69.67;97748.53;4911685;29;20236;-73
2023/12/04 08:40:30;;;;;;;21.47;9.17;;;;;;;5.02;70.00;97715.59;4926223;29;20581;-75
2023/12/04 08:42:57;;;;;;;27.57;10.03;;;;;;;5.33;70.38;97742.56;4911593;29;20199;-74
2023/12/04 08:45:25;;;;;;;21.33;7.93;;;;;;;4.95;70.96;97725.94;4911755;29;20195;-76
2023/12/04 08:47:52;;;;;;;23.83;8.80;;;;;;;4.97;69.70;97744.75;4925267;29;20200;-74
2023/12/04 08:50:19;;;;;;;21.13;7.63;;;;;;;4.71;71.73;97731.38;4926202;29;20196;-75
2023/12/04 08:52:46;;;;;;;18.87;7.67;;;;;;;5.19;70.79;97759.88;4910935;29;20224;-72
2023/12/04 08:55:13;;;;;;;22.50;8.07;;;;;;;4.87;70.09;97717.50;4911486;29;20691;-74
2023/12/04 08:57:40;;;;;;;22.40;8.47;;;;;;;5.45;71.18;97753.50;4911278;29;20197;-72
2023/12/04 09:00:09;;;;;;;24.67;8.83;;;;;;;5.10;70.93;97693.25;4911118;29;20249;-73
2023/12/04 09:02:36;;;;;;;20.03;6.97;;;;;;;5.50;71.45;97756.03;4911055;29;20227;-74
2023/12/04 09:05:18;;;;;;;22.60;8.50;;;;;;;5.69;70.33;97754.84;4910520;29;20219;-73
2023/12/04 09:07:45;;;;;;;19.83;7.03;;;;;;;5.64;70.55;97752.38;4926490;29;20224;-71
2023/12/04 09:10:15;;;;;;;15.87;6.67;;;;;;;5.78;71.16;97754.72;4926239;29;20713;-73
2023/12/04 09:13:02;;;;;;;22.43;7.10;;;;;;;5.73;70.84;97747.09;4911010;29;20698;-74
2023/12/04 09:15:29;;;;;;;21.07;8.30;;;;;;;5.93;70.26;97757.09;4910498;29;20244;-69
2023/12/04 09:17:59;;;;;;;19.27;7.03;;;;;;;5.87;71.19;97769.19;4924766;29;20232;-71
2023/12/04 09:20:26;;;;;;;17.47;7.70;;;;;;;6.03;70.03;97758.63;4911331;29;20204;-73
2023/12/04 09:22:53;;;;;;;22.20;7.17;;;;;;;6.03;70.84;97763.78;4910581;29;20192;-73
2023/12/04 09:25:30;;;;;;;18.67;7.80;;;;;;;5.81;71.04;97723.84;4911149;29;20530;-71
2023/12/04 09:27:57;;;;;;;27.70;9.47;;;;;;;5.76;71.93;97753.91;4910407;29;20276;-71
2023/12/04 09:30:25;;;;;;;20.33;8.53;;;;;;;5.93;71.78;97746.81;4924652;29;20214;-74
2023/12/04 09:32:52;;;;;;;20.43;7.93;;;;;;;5.80;70.10;97747.84;4910120;29;20200;-71
2023/12/04 09:35:20;;;;;;;22.60;9.77;;;;;;;5.92;71.77;97744.25;4924746;29;20234;-73
2023/12/04 09:37:50;;;;;;;22.27;8.03;;;;;;;5.90;72.58;97731.44;4910745;29;20205;-71
2023/12/04 09:40:18;;;;;;;24.87;9.63;;;;;;;5.87;72.45;97726.34;4910132;29;20619;-72
2023/12/04 09:42:45;;;;;;;34.27;10.93;;;;;;;6.08;73.09;97743.16;4910255;29;20295;-71
2023/12/04 09:45:13;;;;;;;25.60;9.57;;;;;;;5.83;73.17;97729.81;4909914;29;20197;-71
2023/12/04 09:47:41;;;;;;;22.77;8.07;;;;;;;5.57;72.98;97734.50;4910351;29;20215;-70
2023/12/04 09:50:10;;;;;;;21.13;8.40;;;;;;;5.20;74.42;97711.06;4924890;29;20210;-70
2023/12/04 09:52:37;;;;;;;26.00;10.77;;;;;;;5.16;75.05;97721.41;4910665;29;20203;-72
2023/12/04 09:55:05;;;;;;;21.30;8.93;;;;;;;5.60;74.53;97731.88;4910625;29;20213;-73
2023/12/04 09:57:34;;;;;;;24.10;9.43;;;;;;;5.54;74.80;97726.84;4910233;29;20283;-75
2023/12/04 10:00:04;;;;;;;22.40;9.47;;;;;;;5.57;74.08;97735.34;4924512;29;20257;-74
2023/12/04 10:02:39;;;;;;;25.47;7.67;;;;;;;5.85;72.63;97728.09;4909672;29;20309;-72
2023/12/04 10:05:09;;;;;;;21.07;8.40;;;;;;;5.88;71.68;97746.03;4910592;29;20212;-74
2023/12/04 10:07:37;;;;;;;21.20;8.43;;;;;;;5.72;72.70;97741.97;4909724;29;20204;-72
2023/12/04 10:10:06;;;;;;;20.00;8.57;;;;;;;5.96;71.64;97741.59;4923770;29;20774;-72
2023/12/04 10:12:35;;;;;;;21.33;7.70;;;;;;;6.08;71.93;97749.09;4924593;29;20204;-71
2023/12/04 10:15:08;;;;;;;18.90;7.27;;;;;;;5.75;71.89;97722.22;4909714;29;20692;-75
2023/12/04 10:17:37;;;;;;;17.13;6.80;;;;;;;5.81;71.40;97728.13;4910262;29;20244;-77
2023/12/04 10:20:12;;;;;;;21.93;7.67;;;;;;;5.93;70.47;97715.13;4892479;29;20288;-74
2023/12/04 10:22:53;;;;;;;24.27;8.60;;;;;;;5.61;70.42;97725.88;4909689;29;20658;-73
2023/12/04 10:25:21;;;;;;;19.63;8.03;;;;;;;5.98;71.34;97736.44;4910234;29;20276;-73
2023/12/04 10:27:48;;;;;;;19.53;7.87;;;;;;;6.23;70.04;97736.00;4909803;29;20296;-74
2023/12/04 10:30:27;;;;;;;25.53;9.23;;;;;;;6.30;69.87;97719.59;4909967;29;20204;-72
2023/12/04 10:33:00;;;;;;;24.93;9.03;;;;;;;6.24;69.04;97722.28;4909251;29;20586;-72
2023/12/04 10:35:32;;;;;;;25.40;9.77;;;;;;;6.35;68.38;97746.06;4910379;29;20214;-76
2023/12/04 10:38:00;;;;;;;23.27;9.23;;;;;;;6.11;69.16;97710.50;4923728;29;20562;-71
2023/12/04 10:40:28;;;;;;;24.80;8.33;;;;;;;6.32;67.60;97719.56;4909474;29;20687;-73
2023/12/04 10:43:10;;;;;;;19.97;8.10;;;;;;;6.51;69.17;97729.47;4899374;29;20188;-73
2023/12/04 10:45:38;;;;;;;22.10;8.67;;;;;;;6.26;67.97;97717.97;4890704;29;20254;-73
2023/12/04 10:48:07;;;;;;;22.63;8.20;;;;;;;5.90;69.24;97726.28;4889562;29;20226;-74
2023/12/04 10:50:37;;;;;;;18.53;6.83;;;;;;;6.25;69.31;97739.41;4890845;29;20852;-74
2023/12/04 10:53:09;;;;;;;19.93;7.97;;;;;;;6.02;69.05;97720.94;4891273;29;20218;-74
2023/12/04 10:55:37;;;;;;;19.23;7.97;;;;;;;6.18;69.69;97737.78;4890758;29;20667;-75
2023/12/04 10:58:09;;;;;;;22.57;8.43;;;;;;;5.86;68.74;97673.25;4892263;29;20226;-73
2023/12/04 11:00:45;;;;;;;23.10;8.30;;;;;;;6.34;68.37;97723.81;4895088;29;20209;-73
2023/12/04 11:03:19;;;;;;;15.20;6.80;;;;;;;6.05;69.86;97725.19;4895127;29;20569;-73
2023/12/04 11:05:55;;;;;;;17.67;6.67;;;;;;;6.37;68.73;97731.47;4894932;29;20197;-72
2023/12/04 11:08:23;;;;;;;22.83;9.17;;;;;;;6.16;69.58;97711.25;4894678;29;20194;-75
2023/12/04 11:11:02;;;;;;;22.13;8.30;;;;;;;6.22;67.39;97721.44;4894796;29;20235;-75
2023/12/04 11:13:35;;;;;;;36.57;10.23;;;;;;;6.55;68.45;97725.97;4894648;29;20706;-73
2023/12/04 11:16:12;;;;;;;13.67;5.87;;;;;;;6.26;64.95;97691.38;4896333;29;20273;-72
2023/12/04 11:18:43;;;;;;;17.10;7.17;;;;;;;6.26;66.66;97730.81;4895342;29;20708;-70
2023/12/04 11:21:11;;;;;;;22.60;6.60;;;;;;;6.44;65.96;97704.75;4908413;29;20225;-70
2023/12/04 11:23:41;;;;;;;17.93;7.13;;;;;;;6.66;65.09;97735.22;4892335;29;20655;-73
2023/12/04 11:26:11;;;;;;;16.53;7.00;;;;;;;6.18;66.45;97717.22;4894466;29;20706;-71
2023/12/04 11:28:39;;;;;;;21.50;8.37;;;;;;;6.19;67.17;97726.66;4892334;29;20531;-71
2023/12/04 11:31:07;;;;;;;17.77;6.70;;;;;;;6.18;66.98;97700.97;4894605;29;20208;-74
2023/12/04 11:33:38;;;;;;;13.67;5.90;;;;;;;6.02;66.77;97654.09;4893623;29;20206;-69
2023/12/04 11:36:09;;;;;;;13.93;6.10;;;;;;;6.46;66.06;97731.31;4894026;29;20305;-70
2023/12/04 11:38:45;;;;;;;22.07;7.43;;;;;;;6.59;66.80;97719.88;4893629;29;20577;-70